sensor_id;sensor_type;location;lat;lon;timestamp;P1;durP1;ratioP1;P2;durP2;ratioP2
13445;SDS011;6795;51.232;3.764;2022-08-01T00:00:08;12.65;;;8.18;;
13445;SDS011;6795;51.232;3.764;2022-08-01T00:02:37;12.50;;;8.75;;
13445;SDS011;6795;51.232;3.764;2022-08-01T00:05:06;13.20;;;8.68;;
13445;SDS011;6795;51.232;3.764;2022-08-01T00:07:37;15.45;;;9.80;;
13445;SDS011;6795;51.232;3.764;2022-08-01T00:10:06;14.70;;;10.15;;
13445;SDS011;6795;51.232;3.764;2022-08-01T00:12:36;18.77;;;10.90;;
13445;SDS011;6795;51.232;3.764;2022-08-01T00:15:06;17.15;;;11.65;;
13445;SDS011;6795;51.232;3.764;2022-08-01T00:17:36;18.02;;;13.07;;
13445;SDS011;6795;51.232;3.764;2022-08-01T00:20:06;12.88;;;11.35;;
13445;SDS011;6795;51.232;3.764;2022-08-01T00:22:37;19.88;;;12.00;;
13445;SDS011;6795;51.232;3.764;2022-08-01T00:25:06;13.70;;;9.85;;
13445;SDS011;6795;51.232;3.764;2022-08-01T00:27:34;14.07;;;9.45;;
13445;SDS011;6795;51.232;3.764;2022-08-01T00:30:03;12.18;;;8.00;;
13445;SDS011;6795;51.232;3.764;2022-08-01T00:32:39;13.93;;;7.93;;
13445;SDS011;6795;51.232;3.764;2022-08-01T00:35:08;12.45;;;7.15;;
13445;SDS011;6795;51.232;3.764;2022-08-01T00:37:36;12.30;;;7.47;;
13445;SDS011;6795;51.232;3.764;2022-08-01T00:40:05;15.52;;;6.00;;
13445;SDS011;6795;51.232;3.764;2022-08-01T00:42:34;9.02;;;5.15;;
13445;SDS011;6795;51.232;3.764;2022-08-01T00:45:10;12.20;;;4.95;;
13445;SDS011;6795;51.232;3.764;2022-08-01T00:47:39;11.32;;;4.63;;
13445;SDS011;6795;51.232;3.764;2022-08-01T00:50:08;6.50;;;2.85;;
13445;SDS011;6795;51.232;3.764;2022-08-01T00:52:37;4.72;;;2.65;;
13445;SDS011;6795;51.232;3.764;2022-08-01T00:55:07;8.60;;;2.85;;
13445;SDS011;6795;51.232;3.764;2022-08-01T00:57:40;9.15;;;2.30;;
13445;SDS011;6795;51.232;3.764;2022-08-01T01:00:31;5.35;;;2.08;;
13445;SDS011;6795;51.232;3.764;2022-08-01T01:03:20;4.53;;;2.25;;
13445;SDS011;6795;51.232;3.764;2022-08-01T01:06:15;7.20;;;1.50;;
13445;SDS011;6795;51.232;3.764;2022-08-01T01:08:55;3.88;;;1.38;;
13445;SDS011;6795;51.232;3.764;2022-08-01T01:11:36;3.08;;;1.10;;
13445;SDS011;6795;51.232;3.764;2022-08-01T01:14:13;7.00;;;0.88;;
13445;SDS011;6795;51.232;3.764;2022-08-01T01:16:52;3.22;;;0.90;;
13445;SDS011;6795;51.232;3.764;2022-08-01T01:19:23;3.08;;;0.77;;
13445;SDS011;6795;51.232;3.764;2022-08-01T01:24:54;2.67;;;0.73;;
13445;SDS011;6795;51.232;3.764;2022-08-01T01:27:36;1.95;;;0.60;;
13445;SDS011;6795;51.232;3.764;2022-08-01T01:30:14;1.20;;;0.60;;
13445;SDS011;6795;51.232;3.764;2022-08-01T01:32:43;1.85;;;0.60;;
13445;SDS011;6795;51.232;3.764;2022-08-01T01:35:15;2.03;;;0.50;;
13445;SDS011;6795;51.232;3.764;2022-08-01T01:37:47;2.55;;;0.77;;
13445;SDS011;6795;51.232;3.764;2022-08-01T01:40:18;4.18;;;0.70;;
13445;SDS011;6795;51.232;3.764;2022-08-01T01:42:48;1.75;;;0.68;;
13445;SDS011;6795;51.232;3.764;2022-08-01T01:45:19;3.83;;;0.73;;
13445;SDS011;6795;51.232;3.764;2022-08-01T01:47:50;4.63;;;0.60;;
13445;SDS011;6795;51.232;3.764;2022-08-01T01:50:21;1.65;;;0.73;;
13445;SDS011;6795;51.232;3.764;2022-08-01T01:52:51;1.15;;;0.60;;
13445;SDS011;6795;51.232;3.764;2022-08-01T01:55:21;2.95;;;1.15;;
13445;SDS011;6795;51.232;3.764;2022-08-01T01:57:53;1.77;;;0.63;;
13445;SDS011;6795;51.232;3.764;2022-08-01T02:00:24;2.30;;;0.80;;
13445;SDS011;6795;51.232;3.764;2022-08-01T02:02:53;1.48;;;0.50;;
13445;SDS011;6795;51.232;3.764;2022-08-01T02:05:24;1.10;;;0.40;;
13445;SDS011;6795;51.232;3.764;2022-08-01T02:07:54;3.17;;;0.52;;
13445;SDS011;6795;51.232;3.764;2022-08-01T02:10:25;2.35;;;0.65;;
13445;SDS011;6795;51.232;3.764;2022-08-01T02:12:55;4.53;;;0.70;;
13445;SDS011;6795;51.232;3.764;2022-08-01T02:15:27;2.80;;;0.85;;
13445;SDS011;6795;51.232;3.764;2022-08-01T02:17:57;2.17;;;1.10;;
13445;SDS011;6795;51.232;3.764;2022-08-01T02:20:27;1.02;;;0.88;;
13445;SDS011;6795;51.232;3.764;2022-08-01T02:23:00;2.08;;;1.00;;
13445;SDS011;6795;51.232;3.764;2022-08-01T02:25:36;2.45;;;0.98;;
13445;SDS011;6795;51.232;3.764;2022-08-01T02:28:29;3.22;;;1.40;;
13445;SDS011;6795;51.232;3.764;2022-08-01T02:31:02;3.28;;;1.75;;
13445;SDS011;6795;51.232;3.764;2022-08-01T02:33:34;2.53;;;1.48;;
13445;SDS011;6795;51.232;3.764;2022-08-01T02:36:06;3.30;;;1.30;;
13445;SDS011;6795;51.232;3.764;2022-08-01T02:38:55;2.42;;;1.20;;
13445;SDS011;6795;51.232;3.764;2022-08-01T02:41:26;2.03;;;1.20;;
13445;SDS011;6795;51.232;3.764;2022-08-01T02:43:56;5.35;;;1.15;;
13445;SDS011;6795;51.232;3.764;2022-08-01T02:46:35;3.88;;;1.20;;
13445;SDS011;6795;51.232;3.764;2022-08-01T02:49:06;1.92;;;1.45;;
13445;SDS011;6795;51.232;3.764;2022-08-01T02:51:36;2.58;;;1.40;;
13445;SDS011;6795;51.232;3.764;2022-08-01T02:54:08;1.52;;;1.40;;
13445;SDS011;6795;51.232;3.764;2022-08-01T02:56:38;2.53;;;1.70;;
13445;SDS011;6795;51.232;3.764;2022-08-01T02:59:10;1.60;;;1.40;;
13445;SDS011;6795;51.232;3.764;2022-08-01T03:01:49;1.85;;;1.70;;
13445;SDS011;6795;51.232;3.764;2022-08-01T03:04:21;3.05;;;1.30;;
13445;SDS011;6795;51.232;3.764;2022-08-01T03:06:50;3.17;;;1.20;;
13445;SDS011;6795;51.232;3.764;2022-08-01T03:09:20;2.22;;;1.65;;
13445;SDS011;6795;51.232;3.764;2022-08-01T03:11:49;2.90;;;1.02;;
13445;SDS011;6795;51.232;3.764;2022-08-01T03:14:18;2.22;;;1.23;;
13445;SDS011;6795;51.232;3.764;2022-08-01T03:16:52;3.53;;;1.20;;
13445;SDS011;6795;51.232;3.764;2022-08-01T03:19:22;2.58;;;1.23;;
13445;SDS011;6795;51.232;3.764;2022-08-01T03:21:51;4.55;;;2.03;;
13445;SDS011;6795;51.232;3.764;2022-08-01T03:24:20;1.33;;;1.20;;
13445;SDS011;6795;51.232;3.764;2022-08-01T03:26:51;4.88;;;2.28;;
13445;SDS011;6795;51.232;3.764;2022-08-01T03:29:21;2.05;;;1.92;;
13445;SDS011;6795;51.232;3.764;2022-08-01T03:31:54;2.70;;;2.08;;
13445;SDS011;6795;51.232;3.764;2022-08-01T03:34:24;3.58;;;2.60;;
13445;SDS011;6795;51.232;3.764;2022-08-01T03:36:55;3.83;;;2.47;;
13445;SDS011;6795;51.232;3.764;2022-08-01T03:39:30;3.33;;;2.35;;
13445;SDS011;6795;51.232;3.764;2022-08-01T03:42:04;4.13;;;2.88;;
13445;SDS011;6795;51.232;3.764;2022-08-01T03:44:41;3.45;;;2.80;;
13445;SDS011;6795;51.232;3.764;2022-08-01T03:47:13;6.38;;;3.05;;
13445;SDS011;6795;51.232;3.764;2022-08-01T03:49:45;6.40;;;3.83;;
13445;SDS011;6795;51.232;3.764;2022-08-01T03:52:15;7.03;;;4.00;;
13445;SDS011;6795;51.232;3.764;2022-08-01T03:54:45;6.78;;;3.30;;
13445;SDS011;6795;51.232;3.764;2022-08-01T03:57:15;3.63;;;3.13;;
13445;SDS011;6795;51.232;3.764;2022-08-01T04:00:01;3.97;;;3.17;;
13445;SDS011;6795;51.232;3.764;2022-08-01T04:02:34;5.65;;;3.08;;
13445;SDS011;6795;51.232;3.764;2022-08-01T04:05:03;3.67;;;2.75;;
13445;SDS011;6795;51.232;3.764;2022-08-01T04:07:32;4.28;;;2.30;;
13445;SDS011;6795;51.232;3.764;2022-08-01T04:10:02;4.38;;;1.98;;
13445;SDS011;6795;51.232;3.764;2022-08-01T04:12:31;3.30;;;1.48;;
13445;SDS011;6795;51.232;3.764;2022-08-01T04:15:01;2.72;;;1.27;;
13445;SDS011;6795;51.232;3.764;2022-08-01T04:17:30;2.38;;;1.70;;
13445;SDS011;6795;51.232;3.764;2022-08-01T04:20:00;3.17;;;2.10;;
13445;SDS011;6795;51.232;3.764;2022-08-01T04:22:28;2.38;;;1.33;;
13445;SDS011;6795;51.232;3.764;2022-08-01T04:25:03;1.48;;;1.17;;
13445;SDS011;6795;51.232;3.764;2022-08-01T04:27:38;5.95;;;1.70;;
13445;SDS011;6795;51.232;3.764;2022-08-01T04:30:16;1.17;;;0.95;;
13445;SDS011;6795;51.232;3.764;2022-08-01T04:32:48;2.15;;;1.20;;
13445;SDS011;6795;51.232;3.764;2022-08-01T04:35:19;1.33;;;1.17;;
13445;SDS011;6795;51.232;3.764;2022-08-01T04:38:08;1.80;;;1.00;;
13445;SDS011;6795;51.232;3.764;2022-08-01T04:40:40;0.80;;;0.80;;
13445;SDS011;6795;51.232;3.764;2022-08-01T04:43:09;1.58;;;0.98;;
13445;SDS011;6795;51.232;3.764;2022-08-01T04:45:40;2.47;;;1.10;;
13445;SDS011;6795;51.232;3.764;2022-08-01T04:48:11;1.10;;;0.80;;
13445;SDS011;6795;51.232;3.764;2022-08-01T04:50:44;1.85;;;1.15;;
13445;SDS011;6795;51.232;3.764;2022-08-01T04:53:13;1.48;;;1.00;;
13445;SDS011;6795;51.232;3.764;2022-08-01T04:55:43;1.50;;;0.80;;
13445;SDS011;6795;51.232;3.764;2022-08-01T04:58:12;1.13;;;0.82;;
13445;SDS011;6795;51.232;3.764;2022-08-01T05:00:44;0.70;;;0.70;;
13445;SDS011;6795;51.232;3.764;2022-08-01T05:03:13;0.63;;;0.63;;
13445;SDS011;6795;51.232;3.764;2022-08-01T05:05:41;1.40;;;0.65;;
13445;SDS011;6795;51.232;3.764;2022-08-01T05:08:11;1.05;;;0.70;;
13445;SDS011;6795;51.232;3.764;2022-08-01T05:10:39;1.40;;;0.70;;
13445;SDS011;6795;51.232;3.764;2022-08-01T05:13:07;0.60;;;0.60;;
13445;SDS011;6795;51.232;3.764;2022-08-01T05:15:37;0.43;;;0.40;;
13445;SDS011;6795;51.232;3.764;2022-08-01T05:18:05;0.98;;;0.70;;
13445;SDS011;6795;51.232;3.764;2022-08-01T05:20:35;1.20;;;0.60;;
13445;SDS011;6795;51.232;3.764;2022-08-01T05:23:03;0.95;;;0.68;;
13445;SDS011;6795;51.232;3.764;2022-08-01T05:25:43;1.17;;;0.60;;
13445;SDS011;6795;51.232;3.764;2022-08-01T05:28:23;2.33;;;0.70;;
13445;SDS011;6795;51.232;3.764;2022-08-01T05:30:51;0.68;;;0.60;;
13445;SDS011;6795;51.232;3.764;2022-08-01T05:33:21;1.33;;;0.47;;
13445;SDS011;6795;51.232;3.764;2022-08-01T05:35:49;0.65;;;0.60;;
13445;SDS011;6795;51.232;3.764;2022-08-01T05:38:17;2.38;;;0.82;;
13445;SDS011;6795;51.232;3.764;2022-08-01T05:40:47;1.38;;;0.63;;
13445;SDS011;6795;51.232;3.764;2022-08-01T05:43:16;0.85;;;0.82;;
13445;SDS011;6795;51.232;3.764;2022-08-01T05:45:44;3.40;;;2.08;;
13445;SDS011;6795;51.232;3.764;2022-08-01T05:48:12;0.73;;;0.73;;
13445;SDS011;6795;51.232;3.764;2022-08-01T05:50:40;3.85;;;1.20;;
13445;SDS011;6795;51.232;3.764;2022-08-01T05:53:09;4.47;;;1.05;;
13445;SDS011;6795;51.232;3.764;2022-08-01T05:55:37;3.85;;;0.90;;
13445;SDS011;6795;51.232;3.764;2022-08-01T05:58:06;1.20;;;0.93;;
13445;SDS011;6795;51.232;3.764;2022-08-01T06:00:38;4.22;;;0.77;;
13445;SDS011;6795;51.232;3.764;2022-08-01T06:03:06;1.58;;;0.70;;
13445;SDS011;6795;51.232;3.764;2022-08-01T06:05:34;3.08;;;0.75;;
13445;SDS011;6795;51.232;3.764;2022-08-01T06:08:03;2.22;;;0.40;;
13445;SDS011;6795;51.232;3.764;2022-08-01T06:10:31;1.50;;;0.60;;
13445;SDS011;6795;51.232;3.764;2022-08-01T06:12:59;1.23;;;0.70;;
13445;SDS011;6795;51.232;3.764;2022-08-01T06:15:30;0.55;;;0.55;;
13445;SDS011;6795;51.232;3.764;2022-08-01T06:18:00;1.85;;;0.90;;
13445;SDS011;6795;51.232;3.764;2022-08-01T06:20:28;3.53;;;0.60;;
13445;SDS011;6795;51.232;3.764;2022-08-01T06:22:57;1.08;;;0.40;;
13445;SDS011;6795;51.232;3.764;2022-08-01T06:25:31;1.00;;;0.50;;
13445;SDS011;6795;51.232;3.764;2022-08-01T06:27:59;0.82;;;0.30;;
13445;SDS011;6795;51.232;3.764;2022-08-01T06:30:30;0.57;;;0.30;;
13445;SDS011;6795;51.232;3.764;2022-08-01T06:32:59;0.60;;;0.30;;
13445;SDS011;6795;51.232;3.764;2022-08-01T06:35:27;1.42;;;0.50;;
13445;SDS011;6795;51.232;3.764;2022-08-01T06:37:56;0.20;;;0.20;;
13445;SDS011;6795;51.232;3.764;2022-08-01T06:40:24;0.80;;;0.30;;
13445;SDS011;6795;51.232;3.764;2022-08-01T06:42:53;0.40;;;0.20;;
13445;SDS011;6795;51.232;3.764;2022-08-01T06:45:21;2.00;;;0.30;;
13445;SDS011;6795;51.232;3.764;2022-08-01T06:47:52;0.38;;;0.20;;
13445;SDS011;6795;51.232;3.764;2022-08-01T06:50:20;0.45;;;0.20;;
13445;SDS011;6795;51.232;3.764;2022-08-01T06:52:49;1.92;;;0.30;;
13445;SDS011;6795;51.232;3.764;2022-08-01T06:55:17;0.20;;;0.20;;
13445;SDS011;6795;51.232;3.764;2022-08-01T06:57:46;1.95;;;0.20;;
13445;SDS011;6795;51.232;3.764;2022-08-01T07:00:17;1.02;;;0.40;;
13445;SDS011;6795;51.232;3.764;2022-08-01T07:02:48;0.47;;;0.20;;
13445;SDS011;6795;51.232;3.764;2022-08-01T07:05:18;0.90;;;0.20;;
13445;SDS011;6795;51.232;3.764;2022-08-01T07:07:47;0.63;;;0.20;;
13445;SDS011;6795;51.232;3.764;2022-08-01T07:10:15;0.88;;;0.20;;
13445;SDS011;6795;51.232;3.764;2022-08-01T07:12:44;1.00;;;0.30;;
13445;SDS011;6795;51.232;3.764;2022-08-01T07:15:12;0.30;;;0.30;;
13445;SDS011;6795;51.232;3.764;2022-08-01T07:17:42;1.00;;;0.10;;
13445;SDS011;6795;51.232;3.764;2022-08-01T07:20:11;0.20;;;0.20;;
13445;SDS011;6795;51.232;3.764;2022-08-01T07:22:43;0.52;;;0.17;;
13445;SDS011;6795;51.232;3.764;2022-08-01T07:25:13;3.00;;;0.90;;
13445;SDS011;6795;51.232;3.764;2022-08-01T07:27:42;0.70;;;0.20;;
13445;SDS011;6795;51.232;3.764;2022-08-01T07:30:11;0.57;;;0.20;;
13445;SDS011;6795;51.232;3.764;2022-08-01T07:32:40;0.47;;;0.20;;
13445;SDS011;6795;51.232;3.764;2022-08-01T07:35:08;0.20;;;0.20;;
13445;SDS011;6795;51.232;3.764;2022-08-01T07:37:37;0.40;;;0.10;;
13445;SDS011;6795;51.232;3.764;2022-08-01T07:40:16;1.35;;;0.15;;
13445;SDS011;6795;51.232;3.764;2022-08-01T07:42:45;1.13;;;0.20;;
13445;SDS011;6795;51.232;3.764;2022-08-01T07:45:14;1.10;;;0.30;;
13445;SDS011;6795;51.232;3.764;2022-08-01T07:47:42;1.05;;;0.30;;
13445;SDS011;6795;51.232;3.764;2022-08-01T07:50:11;0.57;;;0.40;;
13445;SDS011;6795;51.232;3.764;2022-08-01T07:52:40;1.25;;;0.30;;
13445;SDS011;6795;51.232;3.764;2022-08-01T07:55:08;0.50;;;0.20;;
13445;SDS011;6795;51.232;3.764;2022-08-01T07:57:43;1.73;;;0.45;;
13445;SDS011;6795;51.232;3.764;2022-08-01T08:00:12;0.70;;;0.32;;
13445;SDS011;6795;51.232;3.764;2022-08-01T08:02:41;1.25;;;0.50;;
13445;SDS011;6795;51.232;3.764;2022-08-01T08:05:10;0.63;;;0.55;;
13445;SDS011;6795;51.232;3.764;2022-08-01T08:07:38;0.90;;;0.43;;
13445;SDS011;6795;51.232;3.764;2022-08-01T08:10:07;0.95;;;0.40;;
13445;SDS011;6795;51.232;3.764;2022-08-01T08:12:38;0.43;;;0.40;;
13445;SDS011;6795;51.232;3.764;2022-08-01T08:15:10;0.47;;;0.35;;
13445;SDS011;6795;51.232;3.764;2022-08-01T08:17:38;0.55;;;0.50;;
13445;SDS011;6795;51.232;3.764;2022-08-01T08:20:07;0.50;;;0.50;;
13445;SDS011;6795;51.232;3.764;2022-08-01T08:22:37;0.82;;;0.47;;
13445;SDS011;6795;51.232;3.764;2022-08-01T08:25:08;2.50;;;0.40;;
13445;SDS011;6795;51.232;3.764;2022-08-01T08:27:37;1.02;;;0.40;;
13445;SDS011;6795;51.232;3.764;2022-08-01T08:30:06;2.05;;;0.65;;
13445;SDS011;6795;51.232;3.764;2022-08-01T08:32:39;1.52;;;0.50;;
13445;SDS011;6795;51.232;3.764;2022-08-01T08:35:07;0.93;;;0.60;;
13445;SDS011;6795;51.232;3.764;2022-08-01T08:37:38;0.55;;;0.40;;
13445;SDS011;6795;51.232;3.764;2022-08-01T08:40:13;2.17;;;0.90;;
13445;SDS011;6795;51.232;3.764;2022-08-01T08:42:43;0.50;;;0.50;;
13445;SDS011;6795;51.232;3.764;2022-08-01T08:45:13;1.58;;;0.60;;
13445;SDS011;6795;51.232;3.764;2022-08-01T08:47:42;0.80;;;0.80;;
13445;SDS011;6795;51.232;3.764;2022-08-01T08:50:13;1.92;;;0.90;;
13445;SDS011;6795;51.232;3.764;2022-08-01T08:52:42;1.13;;;0.60;;
13445;SDS011;6795;51.232;3.764;2022-08-01T08:55:12;3.22;;;0.60;;
13445;SDS011;6795;51.232;3.764;2022-08-01T08:57:45;0.73;;;0.60;;
13445;SDS011;6795;51.232;3.764;2022-08-01T09:00:14;2.38;;;0.60;;
13445;SDS011;6795;51.232;3.764;2022-08-01T09:02:45;1.25;;;0.50;;
13445;SDS011;6795;51.232;3.764;2022-08-01T09:05:15;1.50;;;0.50;;
13445;SDS011;6795;51.232;3.764;2022-08-01T09:07:45;0.63;;;0.40;;
13445;SDS011;6795;51.232;3.764;2022-08-01T09:10:13;0.40;;;0.40;;
13445;SDS011;6795;51.232;3.764;2022-08-01T09:15:39;1.00;;;0.50;;
13445;SDS011;6795;51.232;3.764;2022-08-01T09:18:10;0.35;;;0.35;;
13445;SDS011;6795;51.232;3.764;2022-08-01T09:21:06;1.17;;;0.47;;
13445;SDS011;6795;51.232;3.764;2022-08-01T09:23:41;1.63;;;0.50;;
13445;SDS011;6795;51.232;3.764;2022-08-01T09:26:20;0.63;;;0.45;;
13445;SDS011;6795;51.232;3.764;2022-08-01T09:28:56;0.88;;;0.40;;
13445;SDS011;6795;51.232;3.764;2022-08-01T09:31:26;1.17;;;0.52;;
13445;SDS011;6795;51.232;3.764;2022-08-01T09:34:06;0.98;;;0.50;;
13445;SDS011;6795;51.232;3.764;2022-08-01T09:36:49;1.27;;;0.60;;
13445;SDS011;6795;51.232;3.764;2022-08-01T09:39:20;0.95;;;0.40;;
13445;SDS011;6795;51.232;3.764;2022-08-01T09:41:51;2.83;;;0.90;;
13445;SDS011;6795;51.232;3.764;2022-08-01T09:44:36;1.67;;;0.70;;
13445;SDS011;6795;51.232;3.764;2022-08-01T09:47:10;1.40;;;0.60;;
13445;SDS011;6795;51.232;3.764;2022-08-01T09:49:42;1.15;;;0.75;;
13445;SDS011;6795;51.232;3.764;2022-08-01T09:52:19;0.50;;;0.50;;
13445;SDS011;6795;51.232;3.764;2022-08-01T09:54:55;0.93;;;0.47;;
13445;SDS011;6795;51.232;3.764;2022-08-01T09:57:27;0.70;;;0.50;;
13445;SDS011;6795;51.232;3.764;2022-08-01T09:59:56;1.27;;;0.30;;
13445;SDS011;6795;51.232;3.764;2022-08-01T10:02:29;2.35;;;0.40;;
13445;SDS011;6795;51.232;3.764;2022-08-01T10:05:01;0.50;;;0.30;;
13445;SDS011;6795;51.232;3.764;2022-08-01T10:07:34;0.75;;;0.40;;
13445;SDS011;6795;51.232;3.764;2022-08-01T10:10:10;0.60;;;0.30;;
13445;SDS011;6795;51.232;3.764;2022-08-01T10:12:40;0.40;;;0.40;;
13445;SDS011;6795;51.232;3.764;2022-08-01T10:15:11;0.82;;;0.30;;
13445;SDS011;6795;51.232;3.764;2022-08-01T10:17:45;0.50;;;0.40;;
13445;SDS011;6795;51.232;3.764;2022-08-01T10:20:24;2.13;;;0.50;;
13445;SDS011;6795;51.232;3.764;2022-08-01T10:22:58;2.05;;;0.50;;
13445;SDS011;6795;51.232;3.764;2022-08-01T10:25:34;2.40;;;0.40;;
13445;SDS011;6795;51.232;3.764;2022-08-01T10:28:11;0.70;;;0.47;;
13445;SDS011;6795;51.232;3.764;2022-08-01T10:30:49;0.63;;;0.30;;
13445;SDS011;6795;51.232;3.764;2022-08-01T10:33:20;0.50;;;0.30;;
13445;SDS011;6795;51.232;3.764;2022-08-01T10:36:11;1.05;;;0.30;;
13445;SDS011;6795;51.232;3.764;2022-08-01T10:38:42;0.95;;;0.45;;
13445;SDS011;6795;51.232;3.764;2022-08-01T10:41:10;0.82;;;0.40;;
13445;SDS011;6795;51.232;3.764;2022-08-01T10:43:41;1.27;;;0.50;;
13445;SDS011;6795;51.232;3.764;2022-08-01T10:46:12;0.98;;;0.30;;
13445;SDS011;6795;51.232;3.764;2022-08-01T10:48:45;0.55;;;0.40;;
13445;SDS011;6795;51.232;3.764;2022-08-01T10:51:23;0.75;;;0.43;;
13445;SDS011;6795;51.232;3.764;2022-08-01T10:54:12;2.28;;;0.38;;
13445;SDS011;6795;51.232;3.764;2022-08-01T10:56:44;1.45;;;0.63;;
13445;SDS011;6795;51.232;3.764;2022-08-01T10:59:20;0.93;;;0.60;;
13445;SDS011;6795;51.232;3.764;2022-08-01T11:02:12;1.85;;;0.60;;
13445;SDS011;6795;51.232;3.764;2022-08-01T11:05:00;2.33;;;0.70;;
13445;SDS011;6795;51.232;3.764;2022-08-01T11:07:38;2.95;;;0.55;;
13445;SDS011;6795;51.232;3.764;2022-08-01T11:10:19;1.05;;;0.90;;
13445;SDS011;6795;51.232;3.764;2022-08-01T11:12:51;1.73;;;0.50;;
13445;SDS011;6795;51.232;3.764;2022-08-01T11:15:20;0.95;;;0.40;;
13445;SDS011;6795;51.232;3.764;2022-08-01T11:17:56;1.48;;;0.50;;
13445;SDS011;6795;51.232;3.764;2022-08-01T11:20:27;1.52;;;0.68;;
13445;SDS011;6795;51.232;3.764;2022-08-01T11:26:09;1.33;;;0.50;;
13445;SDS011;6795;51.232;3.764;2022-08-01T11:28:43;2.53;;;0.63;;
13445;SDS011;6795;51.232;3.764;2022-08-01T11:31:33;0.82;;;0.50;;
13445;SDS011;6795;51.232;3.764;2022-08-01T11:34:03;1.08;;;0.57;;
13445;SDS011;6795;51.232;3.764;2022-08-01T11:36:32;0.75;;;0.75;;
13445;SDS011;6795;51.232;3.764;2022-08-01T11:39:24;0.50;;;0.40;;
13445;SDS011;6795;51.232;3.764;2022-08-01T11:41:52;1.67;;;0.50;;
13445;SDS011;6795;51.232;3.764;2022-08-01T11:44:22;0.77;;;0.30;;
13445;SDS011;6795;51.232;3.764;2022-08-01T11:46:58;2.10;;;0.40;;
13445;SDS011;6795;51.232;3.764;2022-08-01T11:49:44;3.10;;;0.40;;
13445;SDS011;6795;51.232;3.764;2022-08-01T11:52:18;0.35;;;0.30;;
13445;SDS011;6795;51.232;3.764;2022-08-01T11:54:53;2.17;;;0.40;;
13445;SDS011;6795;51.232;3.764;2022-08-01T11:57:23;1.23;;;0.40;;
13445;SDS011;6795;51.232;3.764;2022-08-01T12:00:00;1.52;;;0.50;;
13445;SDS011;6795;51.232;3.764;2022-08-01T12:02:38;1.55;;;0.30;;
13445;SDS011;6795;51.232;3.764;2022-08-01T12:05:07;1.35;;;0.40;;
13445;SDS011;6795;51.232;3.764;2022-08-01T12:07:40;0.88;;;0.40;;
13445;SDS011;6795;51.232;3.764;2022-08-01T12:10:11;2.33;;;0.40;;
13445;SDS011;6795;51.232;3.764;2022-08-01T12:12:42;1.77;;;0.30;;
13445;SDS011;6795;51.232;3.764;2022-08-01T12:15:12;2.15;;;0.50;;
13445;SDS011;6795;51.232;3.764;2022-08-01T12:17:42;1.40;;;0.30;;
13445;SDS011;6795;51.232;3.764;2022-08-01T12:20:25;2.58;;;0.50;;
13445;SDS011;6795;51.232;3.764;2022-08-01T12:22:57;1.73;;;0.43;;
13445;SDS011;6795;51.232;3.764;2022-08-01T12:25:28;1.52;;;0.40;;
13445;SDS011;6795;51.232;3.764;2022-08-01T12:27:59;2.17;;;0.32;;
13445;SDS011;6795;51.232;3.764;2022-08-01T12:30:29;2.53;;;0.40;;
13445;SDS011;6795;51.232;3.764;2022-08-01T12:33:01;1.30;;;0.50;;
13445;SDS011;6795;51.232;3.764;2022-08-01T12:35:31;1.65;;;0.40;;
13445;SDS011;6795;51.232;3.764;2022-08-01T12:38:00;2.05;;;0.70;;
13445;SDS011;6795;51.232;3.764;2022-08-01T12:40:31;0.50;;;0.32;;
13445;SDS011;6795;51.232;3.764;2022-08-01T12:43:02;0.55;;;0.30;;
13445;SDS011;6795;51.232;3.764;2022-08-01T12:45:36;0.68;;;0.40;;
13445;SDS011;6795;51.232;3.764;2022-08-01T12:48:22;2.72;;;0.82;;
13445;SDS011;6795;51.232;3.764;2022-08-01T12:50:52;3.83;;;0.50;;
13445;SDS011;6795;51.232;3.764;2022-08-01T12:53:24;2.10;;;0.38;;
13445;SDS011;6795;51.232;3.764;2022-08-01T12:56:08;2.83;;;0.50;;
13445;SDS011;6795;51.232;3.764;2022-08-01T12:58:37;2.28;;;0.63;;
13445;SDS011;6795;51.232;3.764;2022-08-01T13:01:08;2.42;;;0.50;;
13445;SDS011;6795;51.232;3.764;2022-08-01T13:03:40;3.13;;;0.63;;
13445;SDS011;6795;51.232;3.764;2022-08-01T13:06:10;2.22;;;0.50;;
13445;SDS011;6795;51.232;3.764;2022-08-01T13:08:41;2.30;;;0.30;;
13445;SDS011;6795;51.232;3.764;2022-08-01T13:11:11;1.85;;;0.38;;
13445;SDS011;6795;51.232;3.764;2022-08-01T13:13:42;1.50;;;0.55;;
13445;SDS011;6795;51.232;3.764;2022-08-01T13:16:14;2.38;;;0.45;;
13445;SDS011;6795;51.232;3.764;2022-08-01T13:19:03;1.35;;;0.32;;
13445;SDS011;6795;51.232;3.764;2022-08-01T13:21:34;2.90;;;0.50;;
13445;SDS011;6795;51.232;3.764;2022-08-01T13:24:24;2.45;;;0.30;;
13445;SDS011;6795;51.232;3.764;2022-08-01T13:26:57;2.30;;;0.40;;
13445;SDS011;6795;51.232;3.764;2022-08-01T13:29:29;2.13;;;0.35;;
13445;SDS011;6795;51.232;3.764;2022-08-01T13:31:59;1.27;;;0.40;;
13445;SDS011;6795;51.232;3.764;2022-08-01T13:34:31;2.85;;;0.35;;
13445;SDS011;6795;51.232;3.764;2022-08-01T13:37:00;0.52;;;0.20;;
13445;SDS011;6795;51.232;3.764;2022-08-01T13:39:29;0.38;;;0.10;;
13445;SDS011;6795;51.232;3.764;2022-08-01T13:42:14;0.28;;;0.20;;
13445;SDS011;6795;51.232;3.764;2022-08-01T13:44:44;0.25;;;0.20;;
13445;SDS011;6795;51.232;3.764;2022-08-01T13:47:14;0.65;;;0.30;;
13445;SDS011;6795;51.232;3.764;2022-08-01T13:49:42;3.15;;;0.40;;
13445;SDS011;6795;51.232;3.764;2022-08-01T13:52:11;0.32;;;0.25;;
13445;SDS011;6795;51.232;3.764;2022-08-01T13:54:39;0.35;;;0.28;;
13445;SDS011;6795;51.232;3.764;2022-08-01T13:57:07;2.83;;;0.40;;
13445;SDS011;6795;51.232;3.764;2022-08-01T13:59:37;0.65;;;0.30;;
13445;SDS011;6795;51.232;3.764;2022-08-01T14:02:05;2.17;;;0.40;;
13445;SDS011;6795;51.232;3.764;2022-08-01T14:04:34;1.73;;;0.40;;
13445;SDS011;6795;51.232;3.764;2022-08-01T14:07:02;1.00;;;0.30;;
13445;SDS011;6795;51.232;3.764;2022-08-01T14:09:39;2.85;;;0.28;;
13445;SDS011;6795;51.232;3.764;2022-08-01T14:12:29;0.77;;;0.17;;
13445;SDS011;6795;51.232;3.764;2022-08-01T14:14:59;2.45;;;0.43;;
13445;SDS011;6795;51.232;3.764;2022-08-01T14:17:28;1.38;;;0.20;;
13445;SDS011;6795;51.232;3.764;2022-08-01T14:19:56;0.20;;;0.20;;
13445;SDS011;6795;51.232;3.764;2022-08-01T14:22:25;0.25;;;0.20;;
13445;SDS011;6795;51.232;3.764;2022-08-01T14:24:54;0.55;;;0.30;;
13445;SDS011;6795;51.232;3.764;2022-08-01T14:27:27;0.57;;;0.20;;
13445;SDS011;6795;51.232;3.764;2022-08-01T14:29:57;0.20;;;0.20;;
13445;SDS011;6795;51.232;3.764;2022-08-01T14:32:30;1.20;;;0.20;;
13445;SDS011;6795;51.232;3.764;2022-08-01T14:34:59;0.20;;;0.20;;
13445;SDS011;6795;51.232;3.764;2022-08-01T14:37:28;2.03;;;0.20;;
13445;SDS011;6795;51.232;3.764;2022-08-01T14:40:04;0.30;;;0.20;;
13445;SDS011;6795;51.232;3.764;2022-08-01T14:42:35;0.20;;;0.20;;
13445;SDS011;6795;51.232;3.764;2022-08-01T14:45:05;0.30;;;0.30;;
13445;SDS011;6795;51.232;3.764;2022-08-01T14:47:37;0.30;;;0.20;;
13445;SDS011;6795;51.232;3.764;2022-08-01T14:50:06;0.40;;;0.20;;
13445;SDS011;6795;51.232;3.764;2022-08-01T14:52:36;0.22;;;0.22;;
13445;SDS011;6795;51.232;3.764;2022-08-01T14:55:07;0.70;;;0.20;;
13445;SDS011;6795;51.232;3.764;2022-08-01T14:57:37;0.38;;;0.20;;
13445;SDS011;6795;51.232;3.764;2022-08-01T15:00:06;0.30;;;0.20;;
13445;SDS011;6795;51.232;3.764;2022-08-01T15:02:39;0.60;;;0.35;;
13445;SDS011;6795;51.232;3.764;2022-08-01T15:05:07;0.30;;;0.20;;
13445;SDS011;6795;51.232;3.764;2022-08-01T15:07:37;0.85;;;0.15;;
13445;SDS011;6795;51.232;3.764;2022-08-01T15:10:17;0.30;;;0.30;;
13445;SDS011;6795;51.232;3.764;2022-08-01T15:12:46;0.50;;;0.20;;
13445;SDS011;6795;51.232;3.764;2022-08-01T15:15:16;0.30;;;0.30;;
13445;SDS011;6795;51.232;3.764;2022-08-01T15:17:47;0.93;;;0.20;;
13445;SDS011;6795;51.232;3.764;2022-08-01T15:20:16;0.80;;;0.10;;
13445;SDS011;6795;51.232;3.764;2022-08-01T15:22:44;0.40;;;0.25;;
13445;SDS011;6795;51.232;3.764;2022-08-01T15:25:16;1.67;;;0.30;;
13445;SDS011;6795;51.232;3.764;2022-08-01T15:27:45;0.57;;;0.20;;
13445;SDS011;6795;51.232;3.764;2022-08-01T15:30:13;0.55;;;0.25;;
13445;SDS011;6795;51.232;3.764;2022-08-01T15:32:50;1.58;;;0.20;;
13445;SDS011;6795;51.232;3.764;2022-08-01T15:35:18;0.30;;;0.20;;
13445;SDS011;6795;51.232;3.764;2022-08-01T15:37:47;2.22;;;0.20;;